sensor_id;sensor_type;location;lat;lon;timestamp;pressure;altitude;pressure_sealevel;temperature;humidity
45763;BME280;37512;52.408;13.356;2024-02-21T00:03:23;101552.94;;;7.48;100.00
45763;BME280;37512;52.408;13.356;2024-02-21T00:07:24;101546.31;;;7.42;100.00
45763;BME280;37512;52.408;13.356;2024-02-21T00:11:26;101538.50;;;7.50;100.00
45763;BME280;37512;52.408;13.356;2024-02-21T00:15:30;101529.06;;;7.37;100.00
45763;BME280;37512;52.408;13.356;2024-02-21T00:19:32;101527.50;;;7.44;100.00
45763;BME280;37512;52.408;13.356;2024-02-21T00:23:33;101532.72;;;7.55;100.00
45763;BME280;37512;52.408;13.356;2024-02-21T00:27:35;101523.06;;;7.54;100.00
45763;BME280;37512;52.408;13.356;2024-02-21T00:31:37;101516.16;;;7.51;100.00
45763;BME280;37512;52.408;13.356;2024-02-21T00:35:38;101518.66;;;7.43;100.00
45763;BME280;37512;52.408;13.356;2024-02-21T00:39:39;101515.75;;;7.56;100.00
45763;BME280;37512;52.408;13.356;2024-02-21T00:43:41;101507.31;;;7.41;100.00
45763;BME280;37512;52.408;13.356;2024-02-21T00:47:43;101509.75;;;7.64;100.00
45763;BME280;37512;52.408;13.356;2024-02-21T00:51:45;101501.00;;;7.52;100.00
45763;BME280;37512;52.408;13.356;2024-02-21T00:55:46;101502.56;;;7.64;100.00
45763;BME280;37512;52.408;13.356;2024-02-21T00:59:48;101497.50;;;7.71;100.00
45763;BME280;37512;52.408;13.356;2024-02-21T01:03:49;101494.00;;;7.61;100.00
45763;BME280;37512;52.408;13.356;2024-02-21T01:07:51;101484.59;;;7.56;100.00
45763;BME280;37512;52.408;13.356;2024-02-21T01:11:53;101482.31;;;7.42;100.00
45763;BME280;37512;52.408;13.356;2024-02-21T01:15:54;101489.50;;;7.51;100.00
45763;BME280;37512;52.408;13.356;2024-02-21T01:19:56;101483.59;;;7.57;100.00
45763;BME280;37512;52.408;13.356;2024-02-21T01:23:57;101481.06;;;7.56;100.00
45763;BME280;37512;52.408;13.356;2024-02-21T01:27:59;101476.31;;;7.50;100.00
45763;BME280;37512;52.408;13.356;2024-02-21T01:32:00;101473.34;;;7.43;100.00
45763;BME280;37512;52.408;13.356;2024-02-21T01:36:02;101472.81;;;7.49;100.00
45763;BME280;37512;52.408;13.356;2024-02-21T01:40:05;101469.72;;;7.54;100.00
45763;BME280;37512;52.408;13.356;2024-02-21T01:44:06;101464.09;;;7.47;100.00
45763;BME280;37512;52.408;13.356;2024-02-21T01:48:08;101457.91;;;7.56;100.00
45763;BME280;37512;52.408;13.356;2024-02-21T01:52:11;101454.44;;;7.66;100.00
45763;BME280;37512;52.408;13.356;2024-02-21T01:56:16;101454.56;;;7.54;100.00
45763;BME280;37512;52.408;13.356;2024-02-21T02:00:18;101449.19;;;7.45;100.00
45763;BME280;37512;52.408;13.356;2024-02-21T02:04:20;101447.53;;;7.53;100.00
45763;BME280;37512;52.408;13.356;2024-02-21T02:08:22;101445.56;;;7.55;100.00
45763;BME280;37512;52.408;13.356;2024-02-21T02:12:24;101435.03;;;7.44;100.00
45763;BME280;37512;52.408;13.356;2024-02-21T02:16:25;101442.19;;;7.34;100.00
45763;BME280;37512;52.408;13.356;2024-02-21T02:20:27;101427.44;;;7.20;100.00
45763;BME280;37512;52.408;13.356;2024-02-21T02:24:29;101429.00;;;7.13;100.00
45763;BME280;37512;52.408;13.356;2024-02-21T02:28:31;101424.38;;;7.15;100.00
45763;BME280;37512;52.408;13.356;2024-02-21T02:32:32;101421.84;;;7.14;100.00
45763;BME280;37512;52.408;13.356;2024-02-21T02:36:35;101424.19;;;7.07;100.00
45763;BME280;37512;52.408;13.356;2024-02-21T02:40:38;101406.78;;;6.93;100.00
45763;BME280;37512;52.408;13.356;2024-02-21T02:44:40;101411.16;;;7.04;100.00
45763;BME280;37512;52.408;13.356;2024-02-21T02:48:42;101406.78;;;6.93;100.00
45763;BME280;37512;52.408;13.356;2024-02-21T02:52:43;101409.59;;;7.02;100.00
45763;BME280;37512;52.408;13.356;2024-02-21T02:56:45;101403.81;;;6.87;100.00
45763;BME280;37512;52.408;13.356;2024-02-21T03:00:46;101410.69;;;6.89;100.00
45763;BME280;37512;52.408;13.356;2024-02-21T03:04:48;101392.00;;;6.60;100.00
45763;BME280;37512;52.408;13.356;2024-02-21T03:08:50;101387.25;;;6.74;100.00
45763;BME280;37512;52.408;13.356;2024-02-21T03:12:53;101386.59;;;6.81;100.00
45763;BME280;37512;52.408;13.356;2024-02-21T03:16:55;101379.25;;;6.64;100.00
45763;BME280;37512;52.408;13.356;2024-02-21T03:20:56;101378.56;;;6.72;100.00
45763;BME280;37512;52.408;13.356;2024-02-21T03:24:58;101372.09;;;6.74;100.00
45763;BME280;37512;52.408;13.356;2024-02-21T03:28:59;101365.56;;;6.78;100.00
45763;BME280;37512;52.408;13.356;2024-02-21T03:33:02;101374.53;;;6.87;100.00
45763;BME280;37512;52.408;13.356;2024-02-21T03:37:04;101364.81;;;6.67;100.00
45763;BME280;37512;52.408;13.356;2024-02-21T03:41:06;101368.16;;;6.59;100.00
45763;BME280;37512;52.408;13.356;2024-02-21T03:45:08;101360.19;;;6.69;100.00
45763;BME280;37512;52.408;13.356;2024-02-21T03:49:10;101364.13;;;6.64;100.00
45763;BME280;37512;52.408;13.356;2024-02-21T03:53:13;101344.19;;;6.59;100.00
45763;BME280;37512;52.408;13.356;2024-02-21T03:57:14;101338.28;;;6.55;100.00
45763;BME280;37512;52.408;13.356;2024-02-21T04:01:16;101339.13;;;6.46;100.00
45763;BME280;37512;52.408;13.356;2024-02-21T04:05:18;101346.00;;;6.58;100.00
45763;BME280;37512;52.408;13.356;2024-02-21T04:09:20;101337.22;;;6.68;100.00
45763;BME280;37512;52.408;13.356;2024-02-21T04:13:22;101326.13;;;6.72;100.00
45763;BME280;37512;52.408;13.356;2024-02-21T04:17:24;101329.50;;;6.64;100.00
45763;BME280;37512;52.408;13.356;2024-02-21T04:21:25;101315.44;;;6.53;100.00
45763;BME280;37512;52.408;13.356;2024-02-21T04:25:27;101300.66;;;6.79;100.00
45763;BME280;37512;52.408;13.356;2024-02-21T04:29:28;101296.41;;;6.67;100.00
45763;BME280;37512;52.408;13.356;2024-02-21T04:33:30;101276.50;;;6.71;100.00
45763;BME280;37512;52.408;13.356;2024-02-21T04:37:32;101282.13;;;6.68;100.00
45763;BME280;37512;52.408;13.356;2024-02-21T04:41:33;101263.91;;;6.73;100.00
45763;BME280;37512;52.408;13.356;2024-02-21T04:45:35;101241.34;;;6.68;100.00
45763;BME280;37512;52.408;13.356;2024-02-21T04:49:36;101235.03;;;6.69;100.00
45763;BME280;37512;52.408;13.356;2024-02-21T04:53:38;101237.81;;;6.67;100.00
45763;BME280;37512;52.408;13.356;2024-02-21T04:57:39;101232.91;;;6.72;100.00
45763;BME280;37512;52.408;13.356;2024-02-21T05:01:41;101231.53;;;6.68;100.00
45763;BME280;37512;52.408;13.356;2024-02-21T05:05:43;101227.75;;;6.61;100.00
45763;BME280;37512;52.408;13.356;2024-02-21T05:09:45;101226.06;;;6.60;100.00
45763;BME280;37512;52.408;13.356;2024-02-21T05:13:47;101238.97;;;6.64;100.00
45763;BME280;37512;52.408;13.356;2024-02-21T05:17:49;101236.00;;;6.58;100.00
45763;BME280;37512;52.408;13.356;2024-02-21T05:21:50;101230.41;;;6.61;100.00
45763;BME280;37512;52.408;13.356;2024-02-21T05:25:52;101220.16;;;6.56;100.00
45763;BME280;37512;52.408;13.356;2024-02-21T05:29:54;101234.63;;;6.63;100.00
45763;BME280;37512;52.408;13.356;2024-02-21T05:33:55;101230.81;;;6.66;100.00
45763;BME280;37512;52.408;13.356;2024-02-21T05:37:57;101227.59;;;6.72;100.00
45763;BME280;37512;52.408;13.356;2024-02-21T05:41:58;101235.44;;;6.74;100.00
45763;BME280;37512;52.408;13.356;2024-02-21T05:46:00;101235.44;;;6.74;100.00
45763;BME280;37512;52.408;13.356;2024-02-21T05:50:01;101228.88;;;6.78;100.00
45763;BME280;37512;52.408;13.356;2024-02-21T05:54:03;101226.75;;;6.91;100.00
45763;BME280;37512;52.408;13.356;2024-02-21T05:58:05;101227.88;;;6.79;100.00
45763;BME280;37512;52.408;13.356;2024-02-21T06:02:07;101216.25;;;6.80;100.00
45763;BME280;37512;52.408;13.356;2024-02-21T06:06:09;101224.50;;;6.96;100.00
45763;BME280;37512;52.408;13.356;2024-02-21T06:10:11;101226.63;;;6.83;100.00
45763;BME280;37512;52.408;13.356;2024-02-21T06:14:12;101230.13;;;6.83;100.00
45763;BME280;37512;52.408;13.356;2024-02-21T06:18:14;101224.09;;;6.81;100.00
45763;BME280;37512;52.408;13.356;2024-02-21T06:22:15;101222.13;;;6.83;100.00
45763;BME280;37512;52.408;13.356;2024-02-21T06:26:17;101209.22;;;6.88;100.00
45763;BME280;37512;52.408;13.356;2024-02-21T06:30:19;101203.19;;;6.77;100.00
45763;BME280;37512;52.408;13.356;2024-02-21T06:34:20;101216.66;;;6.85;100.00
45763;BME280;37512;52.408;13.356;2024-02-21T06:38:22;101214.13;;;6.83;100.00
45763;BME280;37512;52.408;13.356;2024-02-21T06:42:27;101208.09;;;6.91;100.00
45763;BME280;37512;52.408;13.356;2024-02-21T06:46:29;101212.03;;;6.87;100.00
45763;BME280;37512;52.408;13.356;2024-02-21T06:50:31;101203.06;;;6.98;100.00
45763;BME280;37512;52.408;13.356;2024-02-21T06:54:32;101213.00;;;6.86;100.00
45763;BME280;37512;52.408;13.356;2024-02-21T06:58:34;101210.22;;;6.97;100.00
45763;BME280;37512;52.408;13.356;2024-02-21T07:02:36;101207.81;;;6.94;100.00
45763;BME280;37512;52.408;13.356;2024-02-21T07:06:38;101218.31;;;7.05;100.00
45763;BME280;37512;52.408;13.356;2024-02-21T07:10:40;101223.94;;;6.92;100.00
45763;BME280;37512;52.408;13.356;2024-02-21T07:14:41;101210.63;;;7.02;100.00
45763;BME280;37512;52.408;13.356;2024-02-21T07:18:43;101215.78;;;6.94;100.00
45763;BME280;37512;52.408;13.356;2024-02-21T07:22:45;101210.75;;;7.01;100.00
45763;BME280;37512;52.408;13.356;2024-02-21T07:26:47;101215.25;;;7.00;100.00
45763;BME280;37512;52.408;13.356;2024-02-21T07:30:49;101208.50;;;7.15;100.00
45763;BME280;37512;52.408;13.356;2024-02-21T07:34:50;101228.97;;;7.15;100.00
45763;BME280;37512;52.408;13.356;2024-02-21T07:38:52;101215.78;;;7.13;100.00
45763;BME280;37512;52.408;13.356;2024-02-21T07:42:53;101213.81;;;7.15;100.00
45763;BME280;37512;52.408;13.356;2024-02-21T07:46:55;101203.41;;;7.22;100.00
45763;BME280;37512;52.408;13.356;2024-02-21T07:50:56;101201.19;;;7.08;100.00
45763;BME280;37512;52.408;13.356;2024-02-21T07:54:58;101214.38;;;7.19;100.00
45763;BME280;37512;52.408;13.356;2024-02-21T07:58:59;101199.06;;;7.21;100.00
45763;BME280;37512;52.408;13.356;2024-02-21T08:03:01;101196.66;;;7.28;100.00
45763;BME280;37512;52.408;13.356;2024-02-21T08:07:03;101201.53;;;7.42;100.00
45763;BME280;37512;52.408;13.356;2024-02-21T08:11:05;101188.94;;;7.34;100.00
45763;BME280;37512;52.408;13.356;2024-02-21T08:15:08;101190.72;;;7.43;100.00
45763;BME280;37512;52.408;13.356;2024-02-21T08:19:11;101187.34;;;7.51;100.00
45763;BME280;37512;52.408;13.356;2024-02-21T08:23:16;101187.34;;;7.51;100.00
45763;BME280;37512;52.408;13.356;2024-02-21T08:27:17;101185.91;;;7.56;100.00
45763;BME280;37512;52.408;13.356;2024-02-21T08:31:19;101182.50;;;7.64;100.00
45763;BME280;37512;52.408;13.356;2024-02-21T08:35:21;101181.78;;;7.62;100.00
45763;BME280;37512;52.408;13.356;2024-02-21T08:39:26;101181.47;;;7.75;100.00
45763;BME280;37512;52.408;13.356;2024-02-21T08:43:29;101184.19;;;7.65;100.00
45763;BME280;37512;52.408;13.356;2024-02-21T08:47:32;101178.09;;;7.73;100.00
45763;BME280;37512;52.408;13.356;2024-02-21T08:51:33;101176.97;;;8.03;100.00
45763;BME280;37512;52.408;13.356;2024-02-21T08:55:37;101181.50;;;7.93;100.00
45763;BME280;37512;52.408;13.356;2024-02-21T08:59:39;101175.50;;;8.36;100.00
45763;BME280;37512;52.408;13.356;2024-02-21T09:03:41;101185.50;;;8.34;100.00
45763;BME280;37512;52.408;13.356;2024-02-21T09:07:44;101186.69;;;8.22;100.00
45763;BME280;37512;52.408;13.356;2024-02-21T09:11:46;101183.84;;;8.23;100.00
45763;BME280;37512;52.408;13.356;2024-02-21T09:15:48;101183.75;;;8.33;100.00
45763;BME280;37512;52.408;13.356;2024-02-21T09:19:50;101179.19;;;8.53;100.00
45763;BME280;37512;52.408;13.356;2024-02-21T09:23:51;101180.06;;;8.43;100.00
45763;BME280;37512;52.408;13.356;2024-02-21T09:27:54;101173.25;;;8.67;100.00
45763;BME280;37512;52.408;13.356;2024-02-21T09:31:55;101163.13;;;8.70;100.00
45763;BME280;37512;52.408;13.356;2024-02-21T09:35:57;101155.84;;;8.81;100.00
45763;BME280;37512;52.408;13.356;2024-02-21T09:39:59;101161.72;;;8.84;100.00
45763;BME280;37512;52.408;13.356;2024-02-21T09:44:01;101163.75;;;9.08;100.00
45763;BME280;37512;52.408;13.356;2024-02-21T09:52:26;101148.03;;;9.05;100.00
45763;BME280;37512;52.408;13.356;2024-02-21T09:56:27;101152.09;;;8.91;100.00
45763;BME280;37512;52.408;13.356;2024-02-21T10:00:29;101159.81;;;9.20;100.00
45763;BME280;37512;52.408;13.356;2024-02-21T10:04:30;101160.84;;;9.01;100.00
45763;BME280;37512;52.408;13.356;2024-02-21T10:08:33;101159.13;;;8.92;100.00
45763;BME280;37512;52.408;13.356;2024-02-21T10:12:35;101155.03;;;9.06;100.00
45763;BME280;37512;52.408;13.356;2024-02-21T10:16:36;101158.28;;;9.18;100.00
45763;BME280;37512;52.408;13.356;2024-02-21T10:20:39;101153.19;;;9.32;100.00
45763;BME280;37512;52.408;13.356;2024-02-21T10:24:41;101153.84;;;9.34;100.00
45763;BME280;37512;52.408;13.356;2024-02-21T10:28:43;101158.34;;;9.26;100.00
45763;BME280;37512;52.408;13.356;2024-02-21T10:32:53;101154.19;;;9.31;100.00
45763;BME280;37512;52.408;13.356;2024-02-21T10:37:05;101166.56;;;9.32;100.00
45763;BME280;37512;52.408;13.356;2024-02-21T10:41:09;101162.13;;;9.49;100.00
45763;BME280;37512;52.408;13.356;2024-02-21T10:45:15;101159.94;;;9.19;100.00
45763;BME280;37512;52.408;13.356;2024-02-21T10:49:22;101151.97;;;9.01;100.00
45763;BME280;37512;52.408;13.356;2024-02-21T10:57:45;101144.38;;;9.14;100.00
45763;BME280;37512;52.408;13.356;2024-02-21T11:01:47;101138.94;;;9.24;100.00
45763;BME280;37512;52.408;13.356;2024-02-21T11:05:51;101144.53;;;9.13;100.00
45763;BME280;37512;52.408;13.356;2024-02-21T11:09:53;101133.59;;;8.98;100.00
45763;BME280;37512;52.408;13.356;2024-02-21T11:14:25;101124.75;;;9.23;100.00
45763;BME280;37512;52.408;13.356;2024-02-21T11:18:27;101096.06;;;9.42;100.00
45763;BME280;37512;52.408;13.356;2024-02-21T11:22:29;101093.34;;;9.84;100.00
45763;BME280;37512;52.408;13.356;2024-02-21T11:26:33;101092.59;;;10.16;100.00
45763;BME280;37512;52.408;13.356;2024-02-21T11:30:36;101082.00;;;9.90;100.00
45763;BME280;37512;52.408;13.356;2024-02-21T11:34:39;101075.06;;;10.30;98.06
45763;BME280;37512;52.408;13.356;2024-02-21T11:38:43;101065.81;;;10.65;96.60
45763;BME280;37512;52.408;13.356;2024-02-21T11:42:45;101052.28;;;10.42;93.88
45763;BME280;37512;52.408;13.356;2024-02-21T11:46:46;101054.06;;;10.82;92.82
45763;BME280;37512;52.408;13.356;2024-02-21T11:50:54;101037.72;;;10.44;92.27
45763;BME280;37512;52.408;13.356;2024-02-21T11:54:56;101036.81;;;10.84;91.26
45763;BME280;37512;52.408;13.356;2024-02-21T11:59:05;101018.16;;;11.38;83.55
45763;BME280;37512;52.408;13.356;2024-02-21T12:03:07;101013.00;;;12.51;76.79
45763;BME280;37512;52.408;13.356;2024-02-21T12:07:10;101005.25;;;12.86;74.18
45763;BME280;37512;52.408;13.356;2024-02-21T12:11:21;101002.75;;;12.32;75.90
45763;BME280;37512;52.408;13.356;2024-02-21T12:15:23;100985.00;;;12.75;73.95
45763;BME280;37512;52.408;13.356;2024-02-21T12:19:25;100992.00;;;11.94;76.03
45763;BME280;37512;52.408;13.356;2024-02-21T12:23:27;100984.25;;;11.14;81.54
45763;BME280;37512;52.408;13.356;2024-02-21T12:27:28;100962.00;;;11.37;82.28
45763;BME280;37512;52.408;13.356;2024-02-21T12:31:30;100970.88;;;11.91;77.23
45763;BME280;37512;52.408;13.356;2024-02-21T12:35:32;100954.13;;;11.04;84.77
45763;BME280;37512;52.408;13.356;2024-02-21T12:39:35;100968.78;;;10.85;88.91
45763;BME280;37512;52.408;13.356;2024-02-21T12:43:38;100964.91;;;10.88;89.19
45763;BME280;37512;52.408;13.356;2024-02-21T12:47:39;100964.66;;;10.67;88.70
45763;BME280;37512;52.408;13.356;2024-02-21T12:51:41;100961.03;;;10.35;90.30
45763;BME280;37512;52.408;13.356;2024-02-21T12:55:43;100946.91;;;10.57;89.13
45763;BME280;37512;52.408;13.356;2024-02-21T12:59:44;100947.25;;;10.63;88.77
45763;BME280;37512;52.408;13.356;2024-02-21T13:03:46;100942.13;;;10.37;87.57
45763;BME280;37512;52.408;13.356;2024-02-21T13:07:48;100956.50;;;10.52;86.36
45763;BME280;37512;52.408;13.356;2024-02-21T13:11:50;100949.09;;;10.62;87.79
45763;BME280;37512;52.408;13.356;2024-02-21T13:15:52;100940.28;;;10.37;88.21
45763;BME280;37512;52.408;13.356;2024-02-21T13:19:54;100926.25;;;10.82;87.32
45763;BME280;37512;52.408;13.356;2024-02-21T13:23:56;100913.91;;;11.04;82.72
45763;BME280;37512;52.408;13.356;2024-02-21T13:27:58;100899.38;;;11.44;81.47
45763;BME280;37512;52.408;13.356;2024-02-21T13:32:02;100898.94;;;11.64;79.13
45763;BME280;37512;52.408;13.356;2024-02-21T13:36:04;100886.38;;;12.02;78.45
45763;BME280;37512;52.408;13.356;2024-02-21T13:40:06;100894.94;;;11.37;78.83
45763;BME280;37512;52.408;13.356;2024-02-21T13:44:10;100883.66;;;11.18;81.35
45763;BME280;37512;52.408;13.356;2024-02-21T13:48:12;100886.34;;;11.18;81.73
45763;BME280;37512;52.408;13.356;2024-02-21T13:52:16;100882.09;;;11.24;82.96
45763;BME280;37512;52.408;13.356;2024-02-21T13:56:18;100882.16;;;10.85;84.14
45763;BME280;37512;52.408;13.356;2024-02-21T14:00:20;100882.53;;;10.74;84.14
45763;BME280;37512;52.408;13.356;2024-02-21T14:04:22;100872.13;;;11.10;82.54
45763;BME280;37512;52.408;13.356;2024-02-21T14:08:23;100872.28;;;11.16;82.01
45763;BME280;37512;52.408;13.356;2024-02-21T14:12:25;100882.47;;;10.90;82.53
45763;BME280;37512;52.408;13.356;2024-02-21T14:16:27;100871.28;;;11.09;81.31
45763;BME280;37512;52.408;13.356;2024-02-21T14:20:28;100872.16;;;10.79;82.77
45763;BME280;37512;52.408;13.356;2024-02-21T14:24:33;100868.47;;;10.80;82.97
45763;BME280;37512;52.408;13.356;2024-02-21T14:28:35;100863.50;;;11.00;80.89
45763;BME280;37512;52.408;13.356;2024-02-21T14:32:37;100865.13;;;10.78;82.36
45763;BME280;37512;52.408;13.356;2024-02-21T14:36:39;100856.56;;;10.82;82.27
45763;BME280;37512;52.408;13.356;2024-02-21T14:40:42;100857.75;;;10.80;83.09
45763;BME280;37512;52.408;13.356;2024-02-21T14:44:44;100846.41;;;11.01;83.03
45763;BME280;37512;52.408;13.356;2024-02-21T14:48:45;100838.13;;;11.71;80.61
45763;BME280;37512;52.408;13.356;2024-02-21T14:52:47;100845.97;;;11.58;79.08
45763;BME280;37512;52.408;13.356;2024-02-21T14:56:49;100844.97;;;11.13;82.43
45763;BME280;37512;52.408;13.356;2024-02-21T15:00:51;100834.66;;;11.25;77.73
45763;BME280;37512;52.408;13.356;2024-02-21T15:04:53;100815.59;;;10.97;79.87
45763;BME280;37512;52.408;13.356;2024-02-21T15:08:54;100811.13;;;11.35;76.56
45763;BME280;37512;52.408;13.356;2024-02-21T15:12:56;100803.81;;;11.66;76.54
45763;BME280;37512;52.408;13.356;2024-02-21T15:16:57;100803.50;;;11.01;80.30
45763;BME280;37512;52.408;13.356;2024-02-21T15:20:59;100801.09;;;10.83;79.68
45763;BME280;37512;52.408;13.356;2024-02-21T15:25:03;100772.19;;;10.70;79.60
45763;BME280;37512;52.408;13.356;2024-02-21T15:29:07;100773.47;;;10.82;79.92
45763;BME280;37512;52.408;13.356;2024-02-21T15:33:09;100763.97;;;10.49;80.34
45763;BME280;37512;52.408;13.356;2024-02-21T15:37:12;100750.44;;;10.42;79.81
45763;BME280;37512;52.408;13.356;2024-02-21T15:41:18;100732.25;;;10.61;79.13
45763;BME280;37512;52.408;13.356;2024-02-21T15:45:22;100733.75;;;10.32;80.83
45763;BME280;37512;52.408;13.356;2024-02-21T15:49:25;100723.88;;;10.55;80.09
45763;BME280;37512;52.408;13.356;2024-02-21T15:53:26;100711.53;;;10.15;81.01
45763;BME280;37512;52.408;13.356;2024-02-21T15:57:28;100703.03;;;10.12;82.20
45763;BME280;37512;52.408;13.356;2024-02-21T16:01:30;100697.94;;;9.86;86.03
45763;BME280;37512;52.408;13.356;2024-02-21T16:05:34;100701.63;;;9.93;85.43
45763;BME280;37512;52.408;13.356;2024-02-21T16:09:37;100696.28;;;9.85;86.70
45763;BME280;37512;52.408;13.356;2024-02-21T16:13:39;100682.75;;;9.78;86.19
45763;BME280;37512;52.408;13.356;2024-02-21T16:17:40;100685.31;;;9.63;86.13
45763;BME280;37512;52.408;13.356;2024-02-21T16:21:42;100684.66;;;9.61;86.73
45763;BME280;37512;52.408;13.356;2024-02-21T16:25:44;100685.25;;;9.24;88.92
45763;BME280;37512;52.408;13.356;2024-02-21T16:29:46;100685.06;;;9.34;87.53
45763;BME280;37512;52.408;13.356;2024-02-21T16:33:49;100691.44;;;9.25;87.68
45763;BME280;37512;52.408;13.356;2024-02-21T16:37:51;100684.09;;;9.11;88.09
45763;BME280;37512;52.408;13.356;2024-02-21T16:41:52;100672.25;;;9.05;88.71
45763;BME280;37512;52.408;13.356;2024-02-21T16:46:01;100678.59;;;8.96;88.69
45763;BME280;37512;52.408;13.356;2024-02-21T16:50:03;100675.25;;;8.94;89.42
45763;BME280;37512;52.408;13.356;2024-02-21T16:54:06;100680.28;;;8.89;89.41
45763;BME280;37512;52.408;13.356;2024-02-21T16:58:10;100682.28;;;8.87;90.21
45763;BME280;37512;52.408;13.356;2024-02-21T17:02:12;100678.94;;;8.68;92.11
45763;BME280;37512;52.408;13.356;2024-02-21T17:06:14;100680.25;;;8.81;91.04
45763;BME280;37512;52.408;13.356;2024-02-21T17:10:19;100681.78;;;8.75;91.72
45763;BME280;37512;52.408;13.356;2024-02-21T17:14:20;100666.88;;;8.48;93.66
45763;BME280;37512;52.408;13.356;2024-02-21T17:18:23;100663.91;;;8.51;95.37
45763;BME280;37512;52.408;13.356;2024-02-21T17:22:25;100650.88;;;8.56;95.10
45763;BME280;37512;52.408;13.356;2024-02-21T17:26:27;100651.06;;;8.55;94.06
45763;BME280;37512;52.408;13.356;2024-02-21T17:30:28;100635.34;;;8.43;95.14
45763;BME280;37512;52.408;13.356;2024-02-21T17:34:30;100615.00;;;8.34;96.59
45763;BME280;37512;52.408;13.356;2024-02-21T17:38:32;100605.44;;;8.32;96.49
45763;BME280;37512;52.408;13.356;2024-02-21T17:42:34;100613.09;;;8.27;97.30
45763;BME280;37512;52.408;13.356;2024-02-21T17:46:43;100599.19;;;7.91;99.55
45763;BME280;37512;52.408;13.356;2024-02-21T17:50:45;100598.88;;;7.94;100.00
45763;BME280;37512;52.408;13.356;2024-02-21T17:54:46;100593.41;;;8.03;99.79
45763;BME280;37512;52.408;13.356;2024-02-21T17:58:48;100594.41;;;8.27;98.78
45763;BME280;37512;52.408;13.356;2024-02-21T18:02:50;100588.81;;;7.79;100.00
45763;BME280;37512;52.408;13.356;2024-02-21T18:06:51;100571.84;;;7.97;100.00
45763;BME280;37512;52.408;13.356;2024-02-21T18:10:53;100570.84;;;7.90;100.00
45763;BME280;37512;52.408;13.356;2024-02-21T18:14:55;100573.22;;;8.01;100.00
45763;BME280;37512;52.408;13.356;2024-02-21T18:19:00;100559.88;;;8.01;99.69
45763;BME280;37512;52.408;13.356;2024-02-21T18:23:02;100546.00;;;7.97;100.00
45763;BME280;37512;52.408;13.356;2024-02-21T18:27:04;100550.88;;;8.02;99.58
45763;BME280;37512;52.408;13.356;2024-02-21T18:31:05;100542.22;;;8.16;99.29
45763;BME280;37512;52.408;13.356;2024-02-21T18:35:07;100539.53;;;8.00;99.38
45763;BME280;37512;52.408;13.356;2024-02-21T18:39:09;100515.50;;;7.92;100.00
45763;BME280;37512;52.408;13.356;2024-02-21T18:43:11;100503.84;;;8.17;99.05
45763;BME280;37512;52.408;13.356;2024-02-21T18:47:14;100492.00;;;8.03;100.00
45763;BME280;37512;52.408;13.356;2024-02-21T18:51:16;100465.81;;;8.07;100.00
45763;BME280;37512;52.408;13.356;2024-02-21T18:55:18;100459.47;;;8.08;99.49
45763;BME280;37512;52.408;13.356;2024-02-21T18:59:20;100460.66;;;7.89;100.00
45763;BME280;37512;52.408;13.356;2024-02-21T19:03:21;100445.81;;;8.03;100.00
45763;BME280;37512;52.408;13.356;2024-02-21T19:07:23;100436.97;;;7.94;100.00
45763;BME280;37512;52.408;13.356;2024-02-21T19:11:25;100426.13;;;8.04;100.00
45763;BME280;37512;52.408;13.356;2024-02-21T19:15:26;100407.78;;;8.09;100.00
45763;BME280;37512;52.408;13.356;2024-02-21T19:19:28;100404.41;;;8.15;100.00
45763;BME280;37512;52.408;13.356;2024-02-21T19:23:30;100393.59;;;8.16;100.00
45763;BME280;37512;52.408;13.356;2024-02-21T19:27:32;100391.63;;;8.02;100.00
45763;BME280;37512;52.408;13.356;2024-02-21T19:31:34;100415.13;;;8.07;100.00
45763;BME280;37512;52.408;13.356;2024-02-21T19:35:36;100396.59;;;8.22;100.00
45763;BME280;37512;52.408;13.356;2024-02-21T19:39:39;100385.25;;;8.11;100.00
45763;BME280;37512;52.408;13.356;2024-02-21T19:43:40;100366.41;;;8.13;100.00
45763;BME280;37512;52.408;13.356;2024-02-21T19:47:42;100356.91;;;8.10;100.00
45763;BME280;37512;52.408;13.356;2024-02-21T19:51:46;100353.59;;;7.92;100.00
45763;BME280;37512;52.408;13.356;2024-02-21T19:55:48;100346.91;;;7.96;100.00
45763;BME280;37512;52.408;13.356;2024-02-21T19:59:50;100352.72;;;8.08;100.00
45763;BME280;37512;52.408;13.356;2024-02-21T20:03:53;100367.78;;;7.84;100.00
45763;BME280;37512;52.408;13.356;2024-02-21T20:07:54;100361.63;;;7.84;100.00
45763;BME280;37512;52.408;13.356;2024-02-21T20:11:56;100345.59;;;7.92;100.00
45763;BME280;37512;52.408;13.356;2024-02-21T20:16:00;100336.97;;;7.82;100.00
45763;BME280;37512;52.408;13.356;2024-02-21T20:20:02;100324.25;;;7.92;100.00
45763;BME280;37512;52.408;13.356;2024-02-21T20:24:06;100312.44;;;7.86;100.00
45763;BME280;37512;52.408;13.356;2024-02-21T20:28:07;100308.63;;;7.73;100.00
45763;BME280;37512;52.408;13.356;2024-02-21T20:32:09;100305.94;;;7.81;100.00
45763;BME280;37512;52.408;13.356;2024-02-21T20:36:11;100297.59;;;7.76;100.00
45763;BME280;37512;52.408;13.356;2024-02-21T20:40:13;100282.69;;;8.06;100.00
45763;BME280;37512;52.408;13.356;2024-02-21T20:44:15;100267.75;;;7.80;100.00
45763;BME280;37512;52.408;13.356;2024-02-21T20:48:16;100264.72;;;8.00;99.43
45763;BME280;37512;52.408;13.356;2024-02-21T20:52:19;100261.06;;;8.01;98.09
45763;BME280;37512;52.408;13.356;2024-02-21T20:56:21;100256.22;;;7.96;97.54
45763;BME280;37512;52.408;13.356;2024-02-21T21:00:23;100254.81;;;8.16;96.76